sensor_id;sensor_type;location;lat;lon;timestamp;temperature;humidity
44229;DHT22;29904;51.058;5.378;2023-05-20T00:00:56;14.00;99.90
44229;DHT22;29904;51.058;5.378;2023-05-20T00:03:21;13.90;99.90
44229;DHT22;29904;51.058;5.378;2023-05-20T00:05:47;13.90;99.90
44229;DHT22;29904;51.058;5.378;2023-05-20T00:08:13;13.90;99.90
44229;DHT22;29904;51.058;5.378;2023-05-20T00:10:39;13.90;99.90
44229;DHT22;29904;51.058;5.378;2023-05-20T00:13:06;13.90;99.90
44229;DHT22;29904;51.058;5.378;2023-05-20T00:15:33;13.80;99.90
44229;DHT22;29904;51.058;5.378;2023-05-20T00:18:02;13.70;99.90
44229;DHT22;29904;51.058;5.378;2023-05-20T00:20:28;13.70;99.90
44229;DHT22;29904;51.058;5.378;2023-05-20T00:22:54;13.70;99.90
44229;DHT22;29904;51.058;5.378;2023-05-20T00:25:19;13.70;99.90
44229;DHT22;29904;51.058;5.378;2023-05-20T00:27:45;13.60;99.90
44229;DHT22;29904;51.058;5.378;2023-05-20T00:30:11;13.60;99.90
44229;DHT22;29904;51.058;5.378;2023-05-20T00:32:37;13.60;99.90
44229;DHT22;29904;51.058;5.378;2023-05-20T00:35:03;13.50;99.90
44229;DHT22;29904;51.058;5.378;2023-05-20T00:37:29;13.50;99.90
44229;DHT22;29904;51.058;5.378;2023-05-20T00:39:55;13.50;99.90
44229;DHT22;29904;51.058;5.378;2023-05-20T00:44:47;13.40;99.90
44229;DHT22;29904;51.058;5.378;2023-05-20T00:47:14;13.30;99.90
44229;DHT22;29904;51.058;5.378;2023-05-20T00:49:41;13.30;99.90
44229;DHT22;29904;51.058;5.378;2023-05-20T00:52:07;13.30;99.90
44229;DHT22;29904;51.058;5.378;2023-05-20T00:54:33;13.30;99.90
44229;DHT22;29904;51.058;5.378;2023-05-20T00:56:59;13.30;99.90
44229;DHT22;29904;51.058;5.378;2023-05-20T00:59:27;13.20;99.90
44229;DHT22;29904;51.058;5.378;2023-05-20T01:01:53;13.10;99.90
44229;DHT22;29904;51.058;5.378;2023-05-20T01:04:19;13.10;99.90
44229;DHT22;29904;51.058;5.378;2023-05-20T01:06:45;13.10;99.90
44229;DHT22;29904;51.058;5.378;2023-05-20T01:09:12;13.00;99.90
44229;DHT22;29904;51.058;5.378;2023-05-20T01:14:36;13.00;99.90
44229;DHT22;29904;51.058;5.378;2023-05-20T01:17:04;12.90;99.90
44229;DHT22;29904;51.058;5.378;2023-05-20T01:19:39;12.90;99.90
44229;DHT22;29904;51.058;5.378;2023-05-20T01:22:09;12.90;99.90
44229;DHT22;29904;51.058;5.378;2023-05-20T01:24:44;12.80;99.90
44229;DHT22;29904;51.058;5.378;2023-05-20T01:27:13;12.80;99.90
44229;DHT22;29904;51.058;5.378;2023-05-20T01:29:40;12.70;99.90
44229;DHT22;29904;51.058;5.378;2023-05-20T01:32:10;12.70;99.90
44229;DHT22;29904;51.058;5.378;2023-05-20T01:34:36;12.70;99.90
44229;DHT22;29904;51.058;5.378;2023-05-20T01:37:04;12.60;99.90
44229;DHT22;29904;51.058;5.378;2023-05-20T01:39:33;12.60;99.90
44229;DHT22;29904;51.058;5.378;2023-05-20T01:42:02;12.50;99.90
44229;DHT22;29904;51.058;5.378;2023-05-20T01:44:29;12.50;99.90
44229;DHT22;29904;51.058;5.378;2023-05-20T01:46:54;12.50;99.90
44229;DHT22;29904;51.058;5.378;2023-05-20T01:49:20;12.50;99.90
44229;DHT22;29904;51.058;5.378;2023-05-20T01:51:46;12.40;99.90
44229;DHT22;29904;51.058;5.378;2023-05-20T01:54:11;12.40;99.90
44229;DHT22;29904;51.058;5.378;2023-05-20T01:56:37;12.30;99.90
44229;DHT22;29904;51.058;5.378;2023-05-20T01:59:03;12.30;99.90
44229;DHT22;29904;51.058;5.378;2023-05-20T02:01:28;12.20;99.90
44229;DHT22;29904;51.058;5.378;2023-05-20T02:03:54;12.20;99.90
44229;DHT22;29904;51.058;5.378;2023-05-20T02:06:20;12.20;99.90
44229;DHT22;29904;51.058;5.378;2023-05-20T02:08:46;12.10;99.90
44229;DHT22;29904;51.058;5.378;2023-05-20T02:11:11;12.10;99.90
44229;DHT22;29904;51.058;5.378;2023-05-20T02:13:38;12.10;99.90
44229;DHT22;29904;51.058;5.378;2023-05-20T02:16:04;12.10;99.90
44229;DHT22;29904;51.058;5.378;2023-05-20T02:18:29;12.00;99.90
44229;DHT22;29904;51.058;5.378;2023-05-20T02:21:01;12.00;99.90
44229;DHT22;29904;51.058;5.378;2023-05-20T02:23:28;12.00;99.90
44229;DHT22;29904;51.058;5.378;2023-05-20T02:25:54;12.00;99.90
44229;DHT22;29904;51.058;5.378;2023-05-20T02:28:20;12.00;99.90
44229;DHT22;29904;51.058;5.378;2023-05-20T02:30:46;12.00;99.90
44229;DHT22;29904;51.058;5.378;2023-05-20T02:33:12;12.10;99.90
44229;DHT22;29904;51.058;5.378;2023-05-20T02:35:38;11.90;99.90
44229;DHT22;29904;51.058;5.378;2023-05-20T02:38:04;11.90;99.90
44229;DHT22;29904;51.058;5.378;2023-05-20T02:40:30;11.80;99.90
44229;DHT22;29904;51.058;5.378;2023-05-20T02:42:57;11.80;99.90
44229;DHT22;29904;51.058;5.378;2023-05-20T02:45:23;11.70;99.90
44229;DHT22;29904;51.058;5.378;2023-05-20T02:47:48;11.70;99.90
44229;DHT22;29904;51.058;5.378;2023-05-20T02:50:14;11.70;99.90
44229;DHT22;29904;51.058;5.378;2023-05-20T02:52:40;11.60;99.90
44229;DHT22;29904;51.058;5.378;2023-05-20T02:55:07;11.60;99.90
44229;DHT22;29904;51.058;5.378;2023-05-20T02:57:33;11.60;99.90
44229;DHT22;29904;51.058;5.378;2023-05-20T03:00:03;11.60;99.90
44229;DHT22;29904;51.058;5.378;2023-05-20T03:02:30;11.60;99.90
44229;DHT22;29904;51.058;5.378;2023-05-20T03:04:56;11.50;99.90
44229;DHT22;29904;51.058;5.378;2023-05-20T03:07:22;11.50;99.90
44229;DHT22;29904;51.058;5.378;2023-05-20T03:09:48;11.50;99.90
44229;DHT22;29904;51.058;5.378;2023-05-20T03:12:13;11.40;99.90
44229;DHT22;29904;51.058;5.378;2023-05-20T03:14:39;11.40;99.90
44229;DHT22;29904;51.058;5.378;2023-05-20T03:17:05;11.40;99.90
44229;DHT22;29904;51.058;5.378;2023-05-20T03:19:31;11.40;99.90
44229;DHT22;29904;51.058;5.378;2023-05-20T03:21:56;11.30;99.90
44229;DHT22;29904;51.058;5.378;2023-05-20T03:24:22;11.30;99.90
44229;DHT22;29904;51.058;5.378;2023-05-20T03:26:48;11.30;99.90
44229;DHT22;29904;51.058;5.378;2023-05-20T03:29:14;11.30;99.90
44229;DHT22;29904;51.058;5.378;2023-05-20T03:31:42;11.20;99.90
44229;DHT22;29904;51.058;5.378;2023-05-20T03:34:08;11.20;99.90
44229;DHT22;29904;51.058;5.378;2023-05-20T03:36:33;11.20;99.90
44229;DHT22;29904;51.058;5.378;2023-05-20T03:38:59;11.20;99.90
44229;DHT22;29904;51.058;5.378;2023-05-20T03:41:26;11.20;99.90
44229;DHT22;29904;51.058;5.378;2023-05-20T03:43:52;11.20;99.90
44229;DHT22;29904;51.058;5.378;2023-05-20T03:46:18;11.20;99.90
44229;DHT22;29904;51.058;5.378;2023-05-20T03:48:44;11.20;99.90
44229;DHT22;29904;51.058;5.378;2023-05-20T03:51:09;11.10;99.90
44229;DHT22;29904;51.058;5.378;2023-05-20T03:53:35;11.10;99.90
44229;DHT22;29904;51.058;5.378;2023-05-20T03:56:01;11.10;99.90
44229;DHT22;29904;51.058;5.378;2023-05-20T03:58:27;11.10;99.90
44229;DHT22;29904;51.058;5.378;2023-05-20T04:00:54;11.10;99.90
44229;DHT22;29904;51.058;5.378;2023-05-20T04:03:20;11.10;99.90
44229;DHT22;29904;51.058;5.378;2023-05-20T04:05:47;11.10;99.90
44229;DHT22;29904;51.058;5.378;2023-05-20T04:08:12;11.10;99.90
44229;DHT22;29904;51.058;5.378;2023-05-20T04:10:40;11.10;99.90
44229;DHT22;29904;51.058;5.378;2023-05-20T04:13:07;11.10;99.90
44229;DHT22;29904;51.058;5.378;2023-05-20T04:15:36;11.10;99.90
44229;DHT22;29904;51.058;5.378;2023-05-20T04:18:03;11.10;99.90
44229;DHT22;29904;51.058;5.378;2023-05-20T04:20:30;11.20;99.90
44229;DHT22;29904;51.058;5.378;2023-05-20T04:22:57;11.20;99.90
44229;DHT22;29904;51.058;5.378;2023-05-20T04:25:22;11.30;99.90
44229;DHT22;29904;51.058;5.378;2023-05-20T04:27:48;11.30;99.90
44229;DHT22;29904;51.058;5.378;2023-05-20T04:30:14;11.40;99.90
44229;DHT22;29904;51.058;5.378;2023-05-20T04:32:44;11.30;99.90
44229;DHT22;29904;51.058;5.378;2023-05-20T04:35:10;11.40;99.90
44229;DHT22;29904;51.058;5.378;2023-05-20T04:37:39;11.40;99.90
44229;DHT22;29904;51.058;5.378;2023-05-20T04:40:05;11.40;99.90
44229;DHT22;29904;51.058;5.378;2023-05-20T04:42:31;11.40;99.90
44229;DHT22;29904;51.058;5.378;2023-05-20T04:44:58;11.50;99.90
44229;DHT22;29904;51.058;5.378;2023-05-20T04:47:27;11.50;99.90
44229;DHT22;29904;51.058;5.378;2023-05-20T04:49:54;11.50;99.90
44229;DHT22;29904;51.058;5.378;2023-05-20T04:52:25;11.60;99.90
44229;DHT22;29904;51.058;5.378;2023-05-20T04:54:52;11.60;99.90
44229;DHT22;29904;51.058;5.378;2023-05-20T04:57:17;11.70;99.90
44229;DHT22;29904;51.058;5.378;2023-05-20T04:59:46;11.70;99.90
44229;DHT22;29904;51.058;5.378;2023-05-20T05:02:12;11.80;99.90
44229;DHT22;29904;51.058;5.378;2023-05-20T05:04:39;11.80;99.90
44229;DHT22;29904;51.058;5.378;2023-05-20T05:07:05;11.90;99.90
44229;DHT22;29904;51.058;5.378;2023-05-20T05:09:30;11.90;99.90
44229;DHT22;29904;51.058;5.378;2023-05-20T05:11:56;12.00;99.90
44229;DHT22;29904;51.058;5.378;2023-05-20T05:14:22;12.10;99.90
44229;DHT22;29904;51.058;5.378;2023-05-20T05:16:48;12.30;99.90
44229;DHT22;29904;51.058;5.378;2023-05-20T05:19:14;12.30;99.90
44229;DHT22;29904;51.058;5.378;2023-05-20T05:21:41;12.40;99.90
44229;DHT22;29904;51.058;5.378;2023-05-20T05:24:06;12.50;99.90
44229;DHT22;29904;51.058;5.378;2023-05-20T05:26:32;12.50;99.90
44229;DHT22;29904;51.058;5.378;2023-05-20T05:28:58;12.70;99.90
44229;DHT22;29904;51.058;5.378;2023-05-20T05:31:24;12.80;99.90
44229;DHT22;29904;51.058;5.378;2023-05-20T05:33:50;12.80;99.90
44229;DHT22;29904;51.058;5.378;2023-05-20T05:36:16;13.00;99.90
44229;DHT22;29904;51.058;5.378;2023-05-20T05:38:42;13.00;99.90
44229;DHT22;29904;51.058;5.378;2023-05-20T05:41:08;13.10;99.90
44229;DHT22;29904;51.058;5.378;2023-05-20T05:43:34;13.30;99.90
44229;DHT22;29904;51.058;5.378;2023-05-20T05:46:00;13.30;99.90
44229;DHT22;29904;51.058;5.378;2023-05-20T05:48:25;13.30;99.90
44229;DHT22;29904;51.058;5.378;2023-05-20T05:50:52;13.40;99.90
44229;DHT22;29904;51.058;5.378;2023-05-20T05:53:17;13.50;99.90
44229;DHT22;29904;51.058;5.378;2023-05-20T05:55:45;13.60;99.90
44229;DHT22;29904;51.058;5.378;2023-05-20T05:58:11;13.70;99.90
44229;DHT22;29904;51.058;5.378;2023-05-20T06:00:37;13.70;99.90
44229;DHT22;29904;51.058;5.378;2023-05-20T06:03:03;13.80;99.90
44229;DHT22;29904;51.058;5.378;2023-05-20T06:05:30;13.90;99.90
44229;DHT22;29904;51.058;5.378;2023-05-20T06:07:56;14.00;99.90
44229;DHT22;29904;51.058;5.378;2023-05-20T06:10:21;14.00;99.90
44229;DHT22;29904;51.058;5.378;2023-05-20T06:12:47;14.00;99.90
44229;DHT22;29904;51.058;5.378;2023-05-20T06:15:13;14.10;99.90
44229;DHT22;29904;51.058;5.378;2023-05-20T06:17:39;14.20;99.90
44229;DHT22;29904;51.058;5.378;2023-05-20T06:20:05;14.40;99.90
44229;DHT22;29904;51.058;5.378;2023-05-20T06:22:32;14.60;99.90
44229;DHT22;29904;51.058;5.378;2023-05-20T06:24:57;14.70;99.90
44229;DHT22;29904;51.058;5.378;2023-05-20T06:27:25;14.70;99.90
44229;DHT22;29904;51.058;5.378;2023-05-20T06:29:51;14.80;99.90
44229;DHT22;29904;51.058;5.378;2023-05-20T06:32:17;14.80;99.90
44229;DHT22;29904;51.058;5.378;2023-05-20T06:34:43;14.90;99.90
44229;DHT22;29904;51.058;5.378;2023-05-20T06:37:09;14.90;99.90
44229;DHT22;29904;51.058;5.378;2023-05-20T06:39:36;15.00;99.90
44229;DHT22;29904;51.058;5.378;2023-05-20T06:42:02;15.00;99.90
44229;DHT22;29904;51.058;5.378;2023-05-20T06:44:28;15.40;99.90
44229;DHT22;29904;51.058;5.378;2023-05-20T06:46:53;16.10;99.90
44229;DHT22;29904;51.058;5.378;2023-05-20T06:49:19;16.60;99.90
44229;DHT22;29904;51.058;5.378;2023-05-20T06:51:45;16.80;99.90
44229;DHT22;29904;51.058;5.378;2023-05-20T06:54:11;16.90;99.90
44229;DHT22;29904;51.058;5.378;2023-05-20T06:56:37;17.10;99.90
44229;DHT22;29904;51.058;5.378;2023-05-20T06:59:02;17.20;99.90
44229;DHT22;29904;51.058;5.378;2023-05-20T07:01:28;17.30;99.90
44229;DHT22;29904;51.058;5.378;2023-05-20T07:03:54;17.30;99.90
44229;DHT22;29904;51.058;5.378;2023-05-20T07:06:19;17.40;99.90
44229;DHT22;29904;51.058;5.378;2023-05-20T07:08:45;17.30;99.90
44229;DHT22;29904;51.058;5.378;2023-05-20T07:11:11;17.40;99.90
44229;DHT22;29904;51.058;5.378;2023-05-20T07:13:37;17.50;99.90
44229;DHT22;29904;51.058;5.378;2023-05-20T07:16:02;17.60;99.90
44229;DHT22;29904;51.058;5.378;2023-05-20T07:18:28;17.80;99.90
44229;DHT22;29904;51.058;5.378;2023-05-20T07:20:54;17.90;99.90
44229;DHT22;29904;51.058;5.378;2023-05-20T07:23:22;17.80;99.90
44229;DHT22;29904;51.058;5.378;2023-05-20T07:25:47;17.70;99.90
44229;DHT22;29904;51.058;5.378;2023-05-20T07:28:15;17.40;99.90
44229;DHT22;29904;51.058;5.378;2023-05-20T07:30:42;17.30;99.90
44229;DHT22;29904;51.058;5.378;2023-05-20T07:33:10;17.30;99.90
44229;DHT22;29904;51.058;5.378;2023-05-20T07:35:36;17.30;99.90
44229;DHT22;29904;51.058;5.378;2023-05-20T07:38:02;17.50;99.90
44229;DHT22;29904;51.058;5.378;2023-05-20T07:40:27;17.70;99.90
44229;DHT22;29904;51.058;5.378;2023-05-20T07:42:53;17.70;99.90
44229;DHT22;29904;51.058;5.378;2023-05-20T07:45:19;17.80;99.90
44229;DHT22;29904;51.058;5.378;2023-05-20T07:47:45;17.80;99.90
44229;DHT22;29904;51.058;5.378;2023-05-20T07:50:10;17.70;99.90
44229;DHT22;29904;51.058;5.378;2023-05-20T07:52:36;17.70;99.90
44229;DHT22;29904;51.058;5.378;2023-05-20T07:55:02;18.10;99.90
44229;DHT22;29904;51.058;5.378;2023-05-20T07:57:28;18.60;99.90
44229;DHT22;29904;51.058;5.378;2023-05-20T07:59:54;18.90;99.90
44229;DHT22;29904;51.058;5.378;2023-05-20T08:02:19;19.00;99.90
44229;DHT22;29904;51.058;5.378;2023-05-20T08:04:45;19.10;99.90
44229;DHT22;29904;51.058;5.378;2023-05-20T08:07:11;19.40;99.90
44229;DHT22;29904;51.058;5.378;2023-05-20T08:09:37;19.80;99.90
44229;DHT22;29904;51.058;5.378;2023-05-20T08:12:02;19.90;99.90
44229;DHT22;29904;51.058;5.378;2023-05-20T08:14:28;20.10;99.90
44229;DHT22;29904;51.058;5.378;2023-05-20T08:16:54;20.10;99.90
44229;DHT22;29904;51.058;5.378;2023-05-20T08:19:20;20.20;99.90
44229;DHT22;29904;51.058;5.378;2023-05-20T08:21:45;20.30;99.90
44229;DHT22;29904;51.058;5.378;2023-05-20T08:24:11;20.40;99.90
44229;DHT22;29904;51.058;5.378;2023-05-20T08:26:37;20.40;99.90
44229;DHT22;29904;51.058;5.378;2023-05-20T08:29:03;20.50;99.90
44229;DHT22;29904;51.058;5.378;2023-05-20T08:31:28;20.50;99.90
44229;DHT22;29904;51.058;5.378;2023-05-20T08:33:54;20.50;99.90
44229;DHT22;29904;51.058;5.378;2023-05-20T08:36:20;20.70;99.90
44229;DHT22;29904;51.058;5.378;2023-05-20T08:38:46;20.70;99.90
44229;DHT22;29904;51.058;5.378;2023-05-20T08:41:11;20.70;99.90
44229;DHT22;29904;51.058;5.378;2023-05-20T08:43:37;20.50;99.90
44229;DHT22;29904;51.058;5.378;2023-05-20T08:46:03;20.40;99.90
44229;DHT22;29904;51.058;5.378;2023-05-20T08:48:32;20.40;99.90
44229;DHT22;29904;51.058;5.378;2023-05-20T08:50:59;20.40;99.90
44229;DHT22;29904;51.058;5.378;2023-05-20T08:53:27;20.40;99.90
44229;DHT22;29904;51.058;5.378;2023-05-20T08:55:55;20.60;99.90
44229;DHT22;29904;51.058;5.378;2023-05-20T08:58:23;20.60;99.90
44229;DHT22;29904;51.058;5.378;2023-05-20T09:00:52;20.70;99.90
44229;DHT22;29904;51.058;5.378;2023-05-20T09:03:18;20.60;99.90
44229;DHT22;29904;51.058;5.378;2023-05-20T09:05:48;20.60;99.90
44229;DHT22;29904;51.058;5.378;2023-05-20T09:08:14;20.70;99.90
44229;DHT22;29904;51.058;5.378;2023-05-20T09:10:40;20.60;99.90
44229;DHT22;29904;51.058;5.378;2023-05-20T09:13:08;20.60;99.90
44229;DHT22;29904;51.058;5.378;2023-05-20T09:15:35;20.60;99.90
44229;DHT22;29904;51.058;5.378;2023-05-20T09:18:05;20.70;99.90
44229;DHT22;29904;51.058;5.378;2023-05-20T09:20:35;20.70;99.90
44229;DHT22;29904;51.058;5.378;2023-05-20T09:23:03;20.90;99.90
44229;DHT22;29904;51.058;5.378;2023-05-20T09:25:30;21.00;99.90
44229;DHT22;29904;51.058;5.378;2023-05-20T09:27:56;21.00;99.90
44229;DHT22;29904;51.058;5.378;2023-05-20T09:30:22;21.00;99.90
44229;DHT22;29904;51.058;5.378;2023-05-20T09:32:58;21.00;99.90
44229;DHT22;29904;51.058;5.378;2023-05-20T09:35:26;21.00;99.90
44229;DHT22;29904;51.058;5.378;2023-05-20T09:37:56;20.90;99.90
44229;DHT22;29904;51.058;5.378;2023-05-20T09:40:23;20.80;99.90
44229;DHT22;29904;51.058;5.378;2023-05-20T09:43:16;20.80;99.90
44229;DHT22;29904;51.058;5.378;2023-05-20T09:45:42;20.80;99.90
44229;DHT22;29904;51.058;5.378;2023-05-20T09:48:08;21.00;99.90
44229;DHT22;29904;51.058;5.378;2023-05-20T09:50:36;21.20;99.90
44229;DHT22;29904;51.058;5.378;2023-05-20T09:53:03;21.30;99.90
44229;DHT22;29904;51.058;5.378;2023-05-20T09:55:29;21.20;99.90
44229;DHT22;29904;51.058;5.378;2023-05-20T09:57:55;20.90;99.90
44229;DHT22;29904;51.058;5.378;2023-05-20T10:00:21;20.70;99.90
44229;DHT22;29904;51.058;5.378;2023-05-20T10:02:49;20.70;99.90
44229;DHT22;29904;51.058;5.378;2023-05-20T10:11:17;20.90;99.90
44229;DHT22;29904;51.058;5.378;2023-05-20T10:16:43;20.90;99.90
44229;DHT22;29904;51.058;5.378;2023-05-20T10:19:32;21.10;99.90
44229;DHT22;29904;51.058;5.378;2023-05-20T10:22:08;21.20;99.90
44229;DHT22;29904;51.058;5.378;2023-05-20T10:24:36;21.30;99.90
44229;DHT22;29904;51.058;5.378;2023-05-20T10:27:12;21.30;99.90
44229;DHT22;29904;51.058;5.378;2023-05-20T10:29:53;21.40;99.90
44229;DHT22;29904;51.058;5.378;2023-05-20T10:32:31;21.40;99.90
44229;DHT22;29904;51.058;5.378;2023-05-20T10:35:01;21.60;99.90
44229;DHT22;29904;51.058;5.378;2023-05-20T10:37:41;21.70;99.90
44229;DHT22;29904;51.058;5.378;2023-05-20T10:40:11;21.90;99.90
44229;DHT22;29904;51.058;5.378;2023-05-20T10:42:37;22.00;99.90
44229;DHT22;29904;51.058;5.378;2023-05-20T10:45:03;21.80;99.90
44229;DHT22;29904;51.058;5.378;2023-05-20T10:47:29;21.40;99.90
44229;DHT22;29904;51.058;5.378;2023-05-20T10:49:55;21.10;99.90
44229;DHT22;29904;51.058;5.378;2023-05-20T10:52:23;21.20;99.90
44229;DHT22;29904;51.058;5.378;2023-05-20T10:54:56;21.40;99.90
44229;DHT22;29904;51.058;5.378;2023-05-20T10:57:24;21.80;99.90
44229;DHT22;29904;51.058;5.378;2023-05-20T10:59:50;21.80;99.90
44229;DHT22;29904;51.058;5.378;2023-05-20T11:02:18;22.00;99.90
44229;DHT22;29904;51.058;5.378;2023-05-20T11:04:45;22.20;99.90
44229;DHT22;29904;51.058;5.378;2023-05-20T11:07:32;22.30;99.90
44229;DHT22;29904;51.058;5.378;2023-05-20T11:09:58;22.60;99.90
44229;DHT22;29904;51.058;5.378;2023-05-20T11:12:26;22.50;99.90
44229;DHT22;29904;51.058;5.378;2023-05-20T11:14:52;22.50;99.90
44229;DHT22;29904;51.058;5.378;2023-05-20T11:17:19;22.50;99.90
44229;DHT22;29904;51.058;5.378;2023-05-20T11:19:49;22.40;99.90
44229;DHT22;29904;51.058;5.378;2023-05-20T11:22:14;22.30;99.90
44229;DHT22;29904;51.058;5.378;2023-05-20T11:24:40;22.40;99.90
44229;DHT22;29904;51.058;5.378;2023-05-20T11:27:06;22.20;99.90
44229;DHT22;29904;51.058;5.378;2023-05-20T11:29:32;22.40;99.90
44229;DHT22;29904;51.058;5.378;2023-05-20T11:31:59;22.50;99.90
44229;DHT22;29904;51.058;5.378;2023-05-20T11:34:31;22.50;99.90
44229;DHT22;29904;51.058;5.378;2023-05-20T11:36:58;22.30;99.90
44229;DHT22;29904;51.058;5.378;2023-05-20T11:39:24;21.90;99.90
44229;DHT22;29904;51.058;5.378;2023-05-20T11:41:51;21.90;99.90
44229;DHT22;29904;51.058;5.378;2023-05-20T11:44:19;22.20;99.90
44229;DHT22;29904;51.058;5.378;2023-05-20T11:46:46;22.20;99.90
44229;DHT22;29904;51.058;5.378;2023-05-20T11:49:12;22.20;99.90
44229;DHT22;29904;51.058;5.378;2023-05-20T11:51:39;22.20;99.90
44229;DHT22;29904;51.058;5.378;2023-05-20T11:54:07;22.00;99.90
44229;DHT22;29904;51.058;5.378;2023-05-20T11:56:33;22.30;99.90
44229;DHT22;29904;51.058;5.378;2023-05-20T11:59:01;22.40;99.90
44229;DHT22;29904;51.058;5.378;2023-05-20T12:01:32;22.20;99.90
44229;DHT22;29904;51.058;5.378;2023-05-20T12:04:11;22.20;99.90
44229;DHT22;29904;51.058;5.378;2023-05-20T12:06:40;22.10;99.90
44229;DHT22;29904;51.058;5.378;2023-05-20T12:09:07;22.00;99.90
44229;DHT22;29904;51.058;5.378;2023-05-20T12:11:37;22.10;99.90
44229;DHT22;29904;51.058;5.378;2023-05-20T12:14:07;22.20;99.90
44229;DHT22;29904;51.058;5.378;2023-05-20T12:16:33;22.10;99.90
44229;DHT22;29904;51.058;5.378;2023-05-20T12:19:00;22.10;99.90
44229;DHT22;29904;51.058;5.378;2023-05-20T12:21:27;22.20;99.90
44229;DHT22;29904;51.058;5.378;2023-05-20T12:23:53;22.10;99.90
44229;DHT22;29904;51.058;5.378;2023-05-20T12:26:26;22.10;99.90
44229;DHT22;29904;51.058;5.378;2023-05-20T12:28:52;22.20;99.90
44229;DHT22;29904;51.058;5.378;2023-05-20T12:31:18;22.40;99.90
44229;DHT22;29904;51.058;5.378;2023-05-20T12:33:43;22.50;99.90
44229;DHT22;29904;51.058;5.378;2023-05-20T12:36:09;22.70;99.90
44229;DHT22;29904;51.058;5.378;2023-05-20T12:38:35;22.80;99.90
44229;DHT22;29904;51.058;5.378;2023-05-20T12:41:01;22.60;99.90
44229;DHT22;29904;51.058;5.378;2023-05-20T12:43:27;22.70;99.90
44229;DHT22;29904;51.058;5.378;2023-05-20T12:45:53;22.90;99.90
44229;DHT22;29904;51.058;5.378;2023-05-20T12:48:19;23.10;99.90
44229;DHT22;29904;51.058;5.378;2023-05-20T12:50:45;23.10;99.90
44229;DHT22;29904;51.058;5.378;2023-05-20T12:53:10;22.80;99.90
44229;DHT22;29904;51.058;5.378;2023-05-20T12:55:36;22.80;99.90
44229;DHT22;29904;51.058;5.378;2023-05-20T12:58:03;23.10;99.90
44229;DHT22;29904;51.058;5.378;2023-05-20T13:00:28;23.00;99.90
44229;DHT22;29904;51.058;5.378;2023-05-20T13:02:54;22.90;99.90
44229;DHT22;29904;51.058;5.378;2023-05-20T13:05:20;22.80;99.90
44229;DHT22;29904;51.058;5.378;2023-05-20T13:07:46;22.70;99.90
44229;DHT22;29904;51.058;5.378;2023-05-20T13:10:13;22.70;99.90
44229;DHT22;29904;51.058;5.378;2023-05-20T13:12:39;22.50;99.90
44229;DHT22;29904;51.058;5.378;2023-05-20T13:15:11;22.60;99.90
44229;DHT22;29904;51.058;5.378;2023-05-20T13:17:41;22.80;99.90
44229;DHT22;29904;51.058;5.378;2023-05-20T13:20:07;23.20;99.90
44229;DHT22;29904;51.058;5.378;2023-05-20T13:22:33;23.20;99.90
44229;DHT22;29904;51.058;5.378;2023-05-20T13:24:59;23.10;99.90
44229;DHT22;29904;51.058;5.378;2023-05-20T13:27:25;22.90;99.90
44229;DHT22;29904;51.058;5.378;2023-05-20T13:29:51;22.70;99.90
44229;DHT22;29904;51.058;5.378;2023-05-20T13:32:17;22.70;99.90
44229;DHT22;29904;51.058;5.378;2023-05-20T13:34:43;22.70;99.90
44229;DHT22;29904;51.058;5.378;2023-05-20T13:37:09;22.50;99.90
44229;DHT22;29904;51.058;5.378;2023-05-20T13:39:34;22.20;99.90
44229;DHT22;29904;51.058;5.378;2023-05-20T13:42:00;22.30;99.90
44229;DHT22;29904;51.058;5.378;2023-05-20T13:44:26;22.60;99.90
44229;DHT22;29904;51.058;5.378;2023-05-20T13:46:52;23.00;99.90
44229;DHT22;29904;51.058;5.378;2023-05-20T13:49:18;22.90;99.90
44229;DHT22;29904;51.058;5.378;2023-05-20T13:51:44;22.80;99.90
44229;DHT22;29904;51.058;5.378;2023-05-20T13:54:10;23.00;99.90
44229;DHT22;29904;51.058;5.378;2023-05-20T13:56:36;22.70;99.90
44229;DHT22;29904;51.058;5.378;2023-05-20T13:59:02;22.70;99.90
44229;DHT22;29904;51.058;5.378;2023-05-20T14:01:29;23.00;99.90
44229;DHT22;29904;51.058;5.378;2023-05-20T14:03:57;22.80;99.90
44229;DHT22;29904;51.058;5.378;2023-05-20T14:06:24;22.30;99.90
44229;DHT22;29904;51.058;5.378;2023-05-20T14:08:53;22.50;99.90
44229;DHT22;29904;51.058;5.378;2023-05-20T14:11:18;22.70;99.90
44229;DHT22;29904;51.058;5.378;2023-05-20T14:13:45;22.90;99.90
44229;DHT22;29904;51.058;5.378;2023-05-20T14:16:11;23.00;99.90
44229;DHT22;29904;51.058;5.378;2023-05-20T14:18:37;22.90;99.90
44229;DHT22;29904;51.058;5.378;2023-05-20T14:21:03;22.70;99.90
44229;DHT22;29904;51.058;5.378;2023-05-20T14:23:28;22.30;99.90
44229;DHT22;29904;51.058;5.378;2023-05-20T14:25:54;22.30;99.90
44229;DHT22;29904;51.058;5.378;2023-05-20T14:28:20;22.50;99.90
44229;DHT22;29904;51.058;5.378;2023-05-20T14:30:46;22.70;99.90
44229;DHT22;29904;51.058;5.378;2023-05-20T14:33:11;22.80;99.90
44229;DHT22;29904;51.058;5.378;2023-05-20T14:35:37;22.40;99.90
44229;DHT22;29904;51.058;5.378;2023-05-20T14:38:03;22.20;99.90
44229;DHT22;29904;51.058;5.378;2023-05-20T14:40:28;22.50;99.90
44229;DHT22;29904;51.058;5.378;2023-05-20T14:42:54;22.60;99.90
44229;DHT22;29904;51.058;5.378;2023-05-20T14:45:20;22.60;99.90
44229;DHT22;29904;51.058;5.378;2023-05-20T14:47:46;22.30;99.90
44229;DHT22;29904;51.058;5.378;2023-05-20T14:50:11;22.00;99.90
44229;DHT22;29904;51.058;5.378;2023-05-20T14:52:37;21.90;99.90
44229;DHT22;29904;51.058;5.378;2023-05-20T14:55:03;22.00;99.90
44229;DHT22;29904;51.058;5.378;2023-05-20T14:57:29;22.30;99.90
44229;DHT22;29904;51.058;5.378;2023-05-20T14:59:55;22.20;99.90
44229;DHT22;29904;51.058;5.378;2023-05-20T15:02:20;21.90;99.90
44229;DHT22;29904;51.058;5.378;2023-05-20T15:04:46;21.70;99.90
44229;DHT22;29904;51.058;5.378;2023-05-20T15:07:13;21.70;99.90
44229;DHT22;29904;51.058;5.378;2023-05-20T15:09:39;22.00;99.90
44229;DHT22;29904;51.058;5.378;2023-05-20T15:12:07;22.40;99.90
44229;DHT22;29904;51.058;5.378;2023-05-20T15:14:33;22.50;99.90
44229;DHT22;29904;51.058;5.378;2023-05-20T15:16:59;22.60;99.90
44229;DHT22;29904;51.058;5.378;2023-05-20T15:19:25;22.60;99.90
44229;DHT22;29904;51.058;5.378;2023-05-20T15:21:54;22.70;99.90
44229;DHT22;29904;51.058;5.378;2023-05-20T15:24:21;22.70;99.90
44229;DHT22;29904;51.058;5.378;2023-05-20T15:26:47;22.60;99.90
44229;DHT22;29904;51.058;5.378;2023-05-20T15:29:14;22.60;99.90
44229;DHT22;29904;51.058;5.378;2023-05-20T15:31:41;22.80;99.90
44229;DHT22;29904;51.058;5.378;2023-05-20T15:34:07;22.60;99.90
44229;DHT22;29904;51.058;5.378;2023-05-20T15:36:34;22.50;99.90
44229;DHT22;29904;51.058;5.378;2023-05-20T15:39:02;22.40;99.90
44229;DHT22;29904;51.058;5.378;2023-05-20T15:41:30;22.40;99.90